Portada
METAR-TAF:

METAR-TAF

Aeroports :

Mangalore, Índia

latitud: 12-55N, longitud: 074-53E, altitud: 102 m

Observació

L'informe es va fer fa 22 minuts, a les 03:30 UTC
Vent calma
Temperatura 31°C
Humitat 71%
Pressió 1010 hPa
Visibilitat: 6000 m
Núvols disperses a una alçada de 1500 ft

METAR: VOML 240330Z 00000KT 6000 SCT015 31/25 Q1010 NOSIG

Hora: 09:22 (03:52 UTC)

Pronòstic

L'informe es va fer fa 1 hora i 52 minuts, a les 02:00 UTC
Pronòstic vàlid del 24 a les 03 UTC al 24 a les 12 UTC
Vent 10 kt del Oest
Visibilitat: 6000 m
Núvols disperses a una alçada de 1500 ft

TAF: VOML 240200Z 2403/2412 27010KT 6000 SCT015

Observacions i pronòstics meteorològics de més de 4000 aeroports (METAR i TAF).

Les estacions disponibles són els punts grocs i vermells al mapa.

Posi el ratolí al punt desitjat per veure el nom de l'estació.

Feu clic per veure les observacions i els pronòstics meteorològics.

Per canviar el mapa: feu clic els botons verds amb una creu de color negre per apropar; al botó verd amb un guió per allunyar la imatge; o en les fletxes verdes per a mapes adjacents.


METAR-TAF: